Ashby, MN

8:25 AM CST on December 27, 2014 (GMT -0600)
Stalker Lake | Change Station
CLOSE
Current Station
Personal Weather Station
Location: Battle Lake, MN
Elevation: 1299 ft
Nearby Weather Stations

Elev 1299 ft 46.19 °N, 95.81 °W | Updated 7 minutes ago

Clear
Clear
5.7 °F
Feels Like 6 °F
N
0.0
Wind Variable Wind from WNW

Today
High -- | Low -- °F
--% Chance of Precip.
Yesterday
High -- | Low -- °F
Precip. -- in
8:04 AM 4:44 PM
Waxing Crescent, 37% visible
Pressure 30.12 in
Visibility 10.0 miles
Clouds Clear
Windchill 6 °F
Dew Point 4 °F
Humidity 93%
Rainfall 0.00 in
Snow Depth Not available.
UV 0 out of 12
Pollen .10 out of 12
Air Quality Not available.
Flu Activity Not available.
METAR KY63 271414Z AUTO 31007KT 10SM CLR M15/M16 A3012 RMK AO2 T11501165

More Conditions Fewer Conditions

Pressure 30.12 in
Visibility 10.0 miles
Clouds Clear
Windchill 6 °F
Dew Point 4 °F
Humidity 93%
Rainfall 0.00 in
Snow Depth Not available.
UV 0 out of 12
Pollen .10 out of 12
Air Quality Not available.
Flu Activity Not available.
METAR KY63 271414Z AUTO 31007KT 10SM CLR M15/M16 A3012 RMK AO2 T11501165

More Conditions Fewer Conditions

10-Day Weather Forecast

Almanac

Astronomy

Dec. 27, 2014 Rise Set
Actual Time
Civil Twilight
Nautical Twilight
Astronomical Twilight
Moon
Length of Visible Light
Length of Day
Tomorrow will be .
, % of the Moon is Illuminated

Today's Extremes

State Highs State Lows

Community

WunderPhotos

Upload Photos

1,780,916 photos uploaded!

WunderBlogs® & News

Nearby

Air Quality

  Air Quality AQ Index Pollutant
Not available.

Snow Depth

Station Depth Elevation

Earthquake Activity

City Distance Mag. Time & Date
Minimum magnitude displayed is 2.5.

Coastal Water Temperatures

Place Temperature

Nearby Weather Stations